sensor_id;sensor_type;location;lat;lon;timestamp;temperature;humidity
20364;DHT22;10340;53.664;9.908;2023-03-01T00:01:15;-1.00;99.90
20364;DHT22;10340;53.664;9.908;2023-03-01T00:03:42;-1.00;99.90
20364;DHT22;10340;53.664;9.908;2023-03-01T00:06:11;-1.00;99.90
20364;DHT22;10340;53.664;9.908;2023-03-01T00:08:38;-1.00;99.90
20364;DHT22;10340;53.664;9.908;2023-03-01T00:11:08;-1.00;99.90
20364;DHT22;10340;53.664;9.908;2023-03-01T00:13:35;-1.00;99.90
20364;DHT22;10340;53.664;9.908;2023-03-01T00:16:03;-1.00;99.90
20364;DHT22;10340;53.664;9.908;2023-03-01T00:18:32;-1.00;99.90
20364;DHT22;10340;53.664;9.908;2023-03-01T00:21:01;-1.00;99.90
20364;DHT22;10340;53.664;9.908;2023-03-01T00:23:30;-1.10;99.90
20364;DHT22;10340;53.664;9.908;2023-03-01T00:25:57;-1.10;99.90
20364;DHT22;10340;53.664;9.908;2023-03-01T00:28:24;-1.10;99.90
20364;DHT22;10340;53.664;9.908;2023-03-01T00:30:51;-1.20;99.90
20364;DHT22;10340;53.664;9.908;2023-03-01T00:33:18;-1.10;99.90
20364;DHT22;10340;53.664;9.908;2023-03-01T00:35:45;-1.20;99.90
20364;DHT22;10340;53.664;9.908;2023-03-01T00:38:12;-1.20;99.90
20364;DHT22;10340;53.664;9.908;2023-03-01T00:40:42;-1.20;99.90
20364;DHT22;10340;53.664;9.908;2023-03-01T00:43:09;-1.20;99.90
20364;DHT22;10340;53.664;9.908;2023-03-01T00:45:36;-1.20;99.90
20364;DHT22;10340;53.664;9.908;2023-03-01T00:48:04;-1.20;99.90
20364;DHT22;10340;53.664;9.908;2023-03-01T00:50:32;-1.20;99.90
20364;DHT22;10340;53.664;9.908;2023-03-01T00:52:59;-1.20;99.90
20364;DHT22;10340;53.664;9.908;2023-03-01T00:55:26;-1.30;99.90
20364;DHT22;10340;53.664;9.908;2023-03-01T00:57:54;-1.20;99.90
20364;DHT22;10340;53.664;9.908;2023-03-01T01:00:21;-1.30;99.90
20364;DHT22;10340;53.664;9.908;2023-03-01T01:02:48;-1.30;99.90
20364;DHT22;10340;53.664;9.908;2023-03-01T01:05:16;-1.30;99.90
20364;DHT22;10340;53.664;9.908;2023-03-01T01:07:46;-1.40;99.90
20364;DHT22;10340;53.664;9.908;2023-03-01T01:10:13;-1.40;99.90
20364;DHT22;10340;53.664;9.908;2023-03-01T01:12:43;-1.40;99.90
20364;DHT22;10340;53.664;9.908;2023-03-01T01:15:12;-1.40;99.90
20364;DHT22;10340;53.664;9.908;2023-03-01T01:17:41;-1.50;99.90
20364;DHT22;10340;53.664;9.908;2023-03-01T01:20:09;-1.50;99.90
20364;DHT22;10340;53.664;9.908;2023-03-01T01:22:36;-1.50;99.90
20364;DHT22;10340;53.664;9.908;2023-03-01T01:25:03;-1.50;99.90
20364;DHT22;10340;53.664;9.908;2023-03-01T01:27:31;-1.50;99.90
20364;DHT22;10340;53.664;9.908;2023-03-01T01:29:57;-1.60;99.90
20364;DHT22;10340;53.664;9.908;2023-03-01T01:32:26;-1.60;99.90
20364;DHT22;10340;53.664;9.908;2023-03-01T01:34:53;-1.50;99.90
20364;DHT22;10340;53.664;9.908;2023-03-01T01:37:20;-1.50;99.90
20364;DHT22;10340;53.664;9.908;2023-03-01T01:39:47;-1.60;99.90
20364;DHT22;10340;53.664;9.908;2023-03-01T01:42:16;-1.60;99.90
20364;DHT22;10340;53.664;9.908;2023-03-01T01:44:46;-1.60;99.90
20364;DHT22;10340;53.664;9.908;2023-03-01T01:47:15;-1.60;99.90
20364;DHT22;10340;53.664;9.908;2023-03-01T01:49:48;-1.60;99.90
20364;DHT22;10340;53.664;9.908;2023-03-01T01:52:18;-1.60;99.90
20364;DHT22;10340;53.664;9.908;2023-03-01T01:54:51;-1.60;99.90
20364;DHT22;10340;53.664;9.908;2023-03-01T01:57:23;-1.70;99.90
20364;DHT22;10340;53.664;9.908;2023-03-01T01:59:53;-1.70;99.90
20364;DHT22;10340;53.664;9.908;2023-03-01T02:02:21;-1.70;99.90
20364;DHT22;10340;53.664;9.908;2023-03-01T02:04:54;-1.70;99.90
20364;DHT22;10340;53.664;9.908;2023-03-01T02:07:26;-1.70;99.90
20364;DHT22;10340;53.664;9.908;2023-03-01T02:09:53;-1.70;99.90
20364;DHT22;10340;53.664;9.908;2023-03-01T02:12:23;-1.70;99.90
20364;DHT22;10340;53.664;9.908;2023-03-01T02:14:50;-1.70;99.90
20364;DHT22;10340;53.664;9.908;2023-03-01T02:17:18;-1.70;99.90
20364;DHT22;10340;53.664;9.908;2023-03-01T02:19:57;-1.70;99.90
20364;DHT22;10340;53.664;9.908;2023-03-01T02:22:27;-1.70;99.90
20364;DHT22;10340;53.664;9.908;2023-03-01T02:25:12;-1.70;99.90
20364;DHT22;10340;53.664;9.908;2023-03-01T02:27:53;-1.80;99.90
20364;DHT22;10340;53.664;9.908;2023-03-01T02:30:25;-1.80;99.90
20364;DHT22;10340;53.664;9.908;2023-03-01T02:32:54;-1.80;99.90
20364;DHT22;10340;53.664;9.908;2023-03-01T02:35:29;-1.80;99.90
20364;DHT22;10340;53.664;9.908;2023-03-01T02:37:59;-1.90;99.90
20364;DHT22;10340;53.664;9.908;2023-03-01T02:40:28;-1.90;99.90
20364;DHT22;10340;53.664;9.908;2023-03-01T02:42:57;-1.90;99.90
20364;DHT22;10340;53.664;9.908;2023-03-01T02:45:26;-1.90;99.90
20364;DHT22;10340;53.664;9.908;2023-03-01T02:47:54;-1.90;99.90
20364;DHT22;10340;53.664;9.908;2023-03-01T02:50:45;-1.90;99.90
20364;DHT22;10340;53.664;9.908;2023-03-01T02:53:18;-1.90;99.90
20364;DHT22;10340;53.664;9.908;2023-03-01T02:55:48;-1.90;99.90
20364;DHT22;10340;53.664;9.908;2023-03-01T02:58:16;-1.90;99.90
20364;DHT22;10340;53.664;9.908;2023-03-01T03:00:44;-2.00;99.90
20364;DHT22;10340;53.664;9.908;2023-03-01T03:03:13;-2.00;99.90
20364;DHT22;10340;53.664;9.908;2023-03-01T03:05:41;-2.00;99.90
20364;DHT22;10340;53.664;9.908;2023-03-01T03:08:09;-2.00;99.90
20364;DHT22;10340;53.664;9.908;2023-03-01T03:10:38;-2.00;99.90
20364;DHT22;10340;53.664;9.908;2023-03-01T03:13:08;-2.10;99.90
20364;DHT22;10340;53.664;9.908;2023-03-01T03:15:35;-2.00;99.90
20364;DHT22;10340;53.664;9.908;2023-03-01T03:18:08;-2.00;99.90
20364;DHT22;10340;53.664;9.908;2023-03-01T03:20:36;-2.00;99.90
20364;DHT22;10340;53.664;9.908;2023-03-01T03:23:03;-2.00;99.90
20364;DHT22;10340;53.664;9.908;2023-03-01T03:25:30;-1.90;99.90
20364;DHT22;10340;53.664;9.908;2023-03-01T03:27:57;-1.90;99.90
20364;DHT22;10340;53.664;9.908;2023-03-01T03:30:26;-1.80;99.90
20364;DHT22;10340;53.664;9.908;2023-03-01T03:32:53;-1.80;99.90
20364;DHT22;10340;53.664;9.908;2023-03-01T03:35:27;-1.80;99.90
20364;DHT22;10340;53.664;9.908;2023-03-01T03:37:56;-1.80;99.90
20364;DHT22;10340;53.664;9.908;2023-03-01T03:40:30;-1.70;99.90
20364;DHT22;10340;53.664;9.908;2023-03-01T03:42:57;-1.70;99.90
20364;DHT22;10340;53.664;9.908;2023-03-01T03:45:24;-1.70;99.90
20364;DHT22;10340;53.664;9.908;2023-03-01T03:47:51;-1.70;99.90
20364;DHT22;10340;53.664;9.908;2023-03-01T03:50:18;-1.70;99.90
20364;DHT22;10340;53.664;9.908;2023-03-01T03:52:47;-1.60;99.90
20364;DHT22;10340;53.664;9.908;2023-03-01T03:55:14;-1.60;99.90
20364;DHT22;10340;53.664;9.908;2023-03-01T03:57:45;-1.60;99.90
20364;DHT22;10340;53.664;9.908;2023-03-01T04:00:18;-1.60;99.90
20364;DHT22;10340;53.664;9.908;2023-03-01T04:02:46;-1.60;99.90
20364;DHT22;10340;53.664;9.908;2023-03-01T04:05:15;-1.60;99.90
20364;DHT22;10340;53.664;9.908;2023-03-01T04:07:43;-1.60;99.90
20364;DHT22;10340;53.664;9.908;2023-03-01T04:10:15;-1.60;99.90
20364;DHT22;10340;53.664;9.908;2023-03-01T04:12:42;-1.60;99.90
20364;DHT22;10340;53.664;9.908;2023-03-01T04:15:10;-1.60;99.90
20364;DHT22;10340;53.664;9.908;2023-03-01T04:17:39;-1.60;99.90
20364;DHT22;10340;53.664;9.908;2023-03-01T04:20:08;-1.60;99.90
20364;DHT22;10340;53.664;9.908;2023-03-01T04:22:36;-1.60;99.90
20364;DHT22;10340;53.664;9.908;2023-03-01T04:25:04;-1.60;99.90
20364;DHT22;10340;53.664;9.908;2023-03-01T04:27:33;-1.60;99.90
20364;DHT22;10340;53.664;9.908;2023-03-01T04:30:00;-1.70;99.90
20364;DHT22;10340;53.664;9.908;2023-03-01T04:32:27;-1.70;99.90
20364;DHT22;10340;53.664;9.908;2023-03-01T04:34:54;-1.70;99.90
20364;DHT22;10340;53.664;9.908;2023-03-01T04:37:21;-1.60;99.90
20364;DHT22;10340;53.664;9.908;2023-03-01T04:39:49;-1.60;99.90
20364;DHT22;10340;53.664;9.908;2023-03-01T04:42:16;-1.60;99.90
20364;DHT22;10340;53.664;9.908;2023-03-01T04:44:45;-1.50;99.90
20364;DHT22;10340;53.664;9.908;2023-03-01T04:47:12;-1.40;99.90
20364;DHT22;10340;53.664;9.908;2023-03-01T04:49:39;-1.40;99.90
20364;DHT22;10340;53.664;9.908;2023-03-01T04:52:07;-1.30;99.90
20364;DHT22;10340;53.664;9.908;2023-03-01T04:54:35;-1.30;99.90
20364;DHT22;10340;53.664;9.908;2023-03-01T04:57:03;-1.20;99.90
20364;DHT22;10340;53.664;9.908;2023-03-01T04:59:30;-1.20;99.90
20364;DHT22;10340;53.664;9.908;2023-03-01T05:01:58;-1.20;99.90
20364;DHT22;10340;53.664;9.908;2023-03-01T05:04:26;-1.10;99.90
20364;DHT22;10340;53.664;9.908;2023-03-01T05:06:53;-1.10;99.90
20364;DHT22;10340;53.664;9.908;2023-03-01T05:09:21;-0.70;99.90
20364;DHT22;10340;53.664;9.908;2023-03-01T05:11:48;-1.00;99.90
20364;DHT22;10340;53.664;9.908;2023-03-01T05:14:17;-0.90;99.90
20364;DHT22;10340;53.664;9.908;2023-03-01T05:16:44;-0.90;99.90
20364;DHT22;10340;53.664;9.908;2023-03-01T05:19:12;-0.80;99.90
20364;DHT22;10340;53.664;9.908;2023-03-01T05:21:41;-0.80;99.90
20364;DHT22;10340;53.664;9.908;2023-03-01T05:24:22;-0.80;99.90
20364;DHT22;10340;53.664;9.908;2023-03-01T05:26:49;-0.70;99.90
20364;DHT22;10340;53.664;9.908;2023-03-01T05:29:17;-0.50;99.90
20364;DHT22;10340;53.664;9.908;2023-03-01T05:31:51;-0.60;99.90
20364;DHT22;10340;53.664;9.908;2023-03-01T05:34:22;-0.60;99.90
20364;DHT22;10340;53.664;9.908;2023-03-01T05:36:49;-0.50;99.90
20364;DHT22;10340;53.664;9.908;2023-03-01T05:39:19;0.00;99.90
20364;DHT22;10340;53.664;9.908;2023-03-01T05:41:47;-0.50;99.90
20364;DHT22;10340;53.664;9.908;2023-03-01T05:44:14;-0.40;99.90
20364;DHT22;10340;53.664;9.908;2023-03-01T05:46:41;-0.40;99.90
20364;DHT22;10340;53.664;9.908;2023-03-01T05:51:36;-0.40;99.90
20364;DHT22;10340;53.664;9.908;2023-03-01T05:54:04;-0.30;99.90
20364;DHT22;10340;53.664;9.908;2023-03-01T05:56:33;-0.40;99.90
20364;DHT22;10340;53.664;9.908;2023-03-01T05:59:00;-0.40;99.90
20364;DHT22;10340;53.664;9.908;2023-03-01T06:01:27;-0.40;99.90
20364;DHT22;10340;53.664;9.908;2023-03-01T06:03:54;-0.40;99.90
20364;DHT22;10340;53.664;9.908;2023-03-01T06:06:22;-0.40;99.90
20364;DHT22;10340;53.664;9.908;2023-03-01T06:08:51;-0.40;99.90
20364;DHT22;10340;53.664;9.908;2023-03-01T06:11:18;-0.40;99.90
20364;DHT22;10340;53.664;9.908;2023-03-01T06:13:46;-0.50;99.90
20364;DHT22;10340;53.664;9.908;2023-03-01T06:16:13;-0.40;99.90
20364;DHT22;10340;53.664;9.908;2023-03-01T06:18:41;-0.40;99.90
20364;DHT22;10340;53.664;9.908;2023-03-01T06:21:08;-0.40;99.90
20364;DHT22;10340;53.664;9.908;2023-03-01T06:23:36;-0.40;99.90
20364;DHT22;10340;53.664;9.908;2023-03-01T06:26:07;-0.50;99.90
20364;DHT22;10340;53.664;9.908;2023-03-01T06:28:34;-0.40;99.90
20364;DHT22;10340;53.664;9.908;2023-03-01T06:31:01;-0.40;99.90
20364;DHT22;10340;53.664;9.908;2023-03-01T06:33:28;-0.40;99.90
20364;DHT22;10340;53.664;9.908;2023-03-01T06:35:55;-0.30;99.90
20364;DHT22;10340;53.664;9.908;2023-03-01T06:38:22;-0.30;99.90
20364;DHT22;10340;53.664;9.908;2023-03-01T06:40:52;-0.20;99.90
20364;DHT22;10340;53.664;9.908;2023-03-01T06:43:21;-0.20;99.90
20364;DHT22;10340;53.664;9.908;2023-03-01T06:45:48;-0.10;99.90
20364;DHT22;10340;53.664;9.908;2023-03-01T06:48:16;-0.10;99.90
20364;DHT22;10340;53.664;9.908;2023-03-01T06:50:43;0.00;99.90
20364;DHT22;10340;53.664;9.908;2023-03-01T06:53:10;0.00;99.90
20364;DHT22;10340;53.664;9.908;2023-03-01T06:55:37;0.00;99.90
20364;DHT22;10340;53.664;9.908;2023-03-01T06:58:03;0.10;99.90
20364;DHT22;10340;53.664;9.908;2023-03-01T07:00:32;0.10;99.90
20364;DHT22;10340;53.664;9.908;2023-03-01T07:03:00;0.20;99.90
20364;DHT22;10340;53.664;9.908;2023-03-01T07:05:28;0.30;99.90
20364;DHT22;10340;53.664;9.908;2023-03-01T07:07:55;0.30;99.90
20364;DHT22;10340;53.664;9.908;2023-03-01T07:10:22;0.40;99.90
20364;DHT22;10340;53.664;9.908;2023-03-01T07:12:49;0.40;99.90
20364;DHT22;10340;53.664;9.908;2023-03-01T07:15:16;0.50;99.90
20364;DHT22;10340;53.664;9.908;2023-03-01T07:17:45;0.50;99.90
20364;DHT22;10340;53.664;9.908;2023-03-01T07:20:13;0.60;99.90
20364;DHT22;10340;53.664;9.908;2023-03-01T07:22:41;0.60;99.90
20364;DHT22;10340;53.664;9.908;2023-03-01T07:25:08;0.70;99.90
20364;DHT22;10340;53.664;9.908;2023-03-01T07:27:36;0.70;99.90
20364;DHT22;10340;53.664;9.908;2023-03-01T07:30:03;0.80;99.90
20364;DHT22;10340;53.664;9.908;2023-03-01T07:32:30;0.70;99.90
20364;DHT22;10340;53.664;9.908;2023-03-01T07:34:58;0.80;99.90
20364;DHT22;10340;53.664;9.908;2023-03-01T07:37:25;0.80;99.90
20364;DHT22;10340;53.664;9.908;2023-03-01T07:39:52;0.80;99.90
20364;DHT22;10340;53.664;9.908;2023-03-01T07:42:19;0.80;99.90
20364;DHT22;10340;53.664;9.908;2023-03-01T07:44:46;0.80;99.90
20364;DHT22;10340;53.664;9.908;2023-03-01T07:47:13;0.80;99.90
20364;DHT22;10340;53.664;9.908;2023-03-01T07:49:40;0.80;99.90
20364;DHT22;10340;53.664;9.908;2023-03-01T07:52:11;0.80;99.90
20364;DHT22;10340;53.664;9.908;2023-03-01T07:54:38;0.90;99.90
20364;DHT22;10340;53.664;9.908;2023-03-01T07:57:05;0.90;99.90
20364;DHT22;10340;53.664;9.908;2023-03-01T07:59:32;1.00;99.90
20364;DHT22;10340;53.664;9.908;2023-03-01T08:01:59;1.10;99.90
20364;DHT22;10340;53.664;9.908;2023-03-01T08:04:26;1.10;99.90
20364;DHT22;10340;53.664;9.908;2023-03-01T08:06:53;1.10;99.90
20364;DHT22;10340;53.664;9.908;2023-03-01T08:09:22;1.20;99.90
20364;DHT22;10340;53.664;9.908;2023-03-01T08:11:49;1.20;99.90
20364;DHT22;10340;53.664;9.908;2023-03-01T08:14:16;1.20;99.90
20364;DHT22;10340;53.664;9.908;2023-03-01T08:16:43;1.20;99.90
20364;DHT22;10340;53.664;9.908;2023-03-01T08:19:11;1.40;99.90
20364;DHT22;10340;53.664;9.908;2023-03-01T08:21:39;1.30;99.90
20364;DHT22;10340;53.664;9.908;2023-03-01T08:24:07;1.30;99.90
20364;DHT22;10340;53.664;9.908;2023-03-01T08:26:37;1.30;99.90
20364;DHT22;10340;53.664;9.908;2023-03-01T08:29:04;1.30;99.90
20364;DHT22;10340;53.664;9.908;2023-03-01T08:31:32;1.30;99.90
20364;DHT22;10340;53.664;9.908;2023-03-01T08:34:03;1.20;99.90
20364;DHT22;10340;53.664;9.908;2023-03-01T08:36:32;1.20;99.90
20364;DHT22;10340;53.664;9.908;2023-03-01T08:39:00;1.20;99.90
20364;DHT22;10340;53.664;9.908;2023-03-01T08:41:27;1.20;99.90
20364;DHT22;10340;53.664;9.908;2023-03-01T08:43:56;1.20;99.90
20364;DHT22;10340;53.664;9.908;2023-03-01T08:46:25;1.20;99.90
20364;DHT22;10340;53.664;9.908;2023-03-01T08:48:52;1.20;99.90
20364;DHT22;10340;53.664;9.908;2023-03-01T08:51:20;1.20;99.90
20364;DHT22;10340;53.664;9.908;2023-03-01T08:53:48;1.30;99.90
20364;DHT22;10340;53.664;9.908;2023-03-01T08:56:16;1.30;99.90
20364;DHT22;10340;53.664;9.908;2023-03-01T08:58:44;1.40;99.90
20364;DHT22;10340;53.664;9.908;2023-03-01T09:01:14;1.50;99.90
20364;DHT22;10340;53.664;9.908;2023-03-01T09:03:41;1.60;99.90
20364;DHT22;10340;53.664;9.908;2023-03-01T09:06:09;1.60;99.90
20364;DHT22;10340;53.664;9.908;2023-03-01T09:08:39;1.70;99.90
20364;DHT22;10340;53.664;9.908;2023-03-01T09:11:08;1.80;99.90
20364;DHT22;10340;53.664;9.908;2023-03-01T09:13:35;1.80;99.90
20364;DHT22;10340;53.664;9.908;2023-03-01T09:16:04;1.90;99.90
20364;DHT22;10340;53.664;9.908;2023-03-01T09:18:34;2.00;99.90
20364;DHT22;10340;53.664;9.908;2023-03-01T09:21:02;2.10;99.90
20364;DHT22;10340;53.664;9.908;2023-03-01T09:23:32;2.30;99.90
20364;DHT22;10340;53.664;9.908;2023-03-01T09:25:59;2.40;99.90
20364;DHT22;10340;53.664;9.908;2023-03-01T09:28:26;2.60;99.90
20364;DHT22;10340;53.664;9.908;2023-03-01T09:30:53;2.70;99.90
20364;DHT22;10340;53.664;9.908;2023-03-01T09:33:20;2.80;99.90
20364;DHT22;10340;53.664;9.908;2023-03-01T09:35:49;2.80;99.90
20364;DHT22;10340;53.664;9.908;2023-03-01T09:38:15;2.80;99.90
20364;DHT22;10340;53.664;9.908;2023-03-01T09:40:43;2.80;99.90
20364;DHT22;10340;53.664;9.908;2023-03-01T09:43:18;2.90;99.90
20364;DHT22;10340;53.664;9.908;2023-03-01T09:45:48;2.90;99.90
20364;DHT22;10340;53.664;9.908;2023-03-01T09:48:18;3.00;99.90
20364;DHT22;10340;53.664;9.908;2023-03-01T09:50:49;3.10;99.90
20364;DHT22;10340;53.664;9.908;2023-03-01T09:53:19;3.10;99.90
20364;DHT22;10340;53.664;9.908;2023-03-01T09:55:52;3.10;99.90
20364;DHT22;10340;53.664;9.908;2023-03-01T09:58:34;3.10;99.90
20364;DHT22;10340;53.664;9.908;2023-03-01T10:01:18;3.30;99.90
20364;DHT22;10340;53.664;9.908;2023-03-01T10:04:00;3.30;99.90
20364;DHT22;10340;53.664;9.908;2023-03-01T10:06:33;3.20;99.90
20364;DHT22;10340;53.664;9.908;2023-03-01T10:09:03;3.20;99.90
20364;DHT22;10340;53.664;9.908;2023-03-01T10:11:36;3.20;99.90
20364;DHT22;10340;53.664;9.908;2023-03-01T10:14:12;3.30;99.90
20364;DHT22;10340;53.664;9.908;2023-03-01T10:16:45;3.30;99.90
20364;DHT22;10340;53.664;9.908;2023-03-01T10:19:25;3.40;99.90
20364;DHT22;10340;53.664;9.908;2023-03-01T10:21:57;3.40;99.90
20364;DHT22;10340;53.664;9.908;2023-03-01T10:24:29;3.40;99.90
20364;DHT22;10340;53.664;9.908;2023-03-01T10:27:01;3.50;99.90
20364;DHT22;10340;53.664;9.908;2023-03-01T10:29:34;3.60;99.90
20364;DHT22;10340;53.664;9.908;2023-03-01T10:32:04;3.60;99.90
20364;DHT22;10340;53.664;9.908;2023-03-01T10:34:34;3.80;99.90
20364;DHT22;10340;53.664;9.908;2023-03-01T10:37:11;3.80;99.90
20364;DHT22;10340;53.664;9.908;2023-03-01T10:39:55;3.80;99.90
20364;DHT22;10340;53.664;9.908;2023-03-01T10:42:27;3.90;99.90
20364;DHT22;10340;53.664;9.908;2023-03-01T10:44:54;3.90;99.90
20364;DHT22;10340;53.664;9.908;2023-03-01T10:47:23;3.80;99.90
20364;DHT22;10340;53.664;9.908;2023-03-01T10:49:58;3.80;99.90
20364;DHT22;10340;53.664;9.908;2023-03-01T10:52:33;3.80;99.90
20364;DHT22;10340;53.664;9.908;2023-03-01T10:55:03;3.90;99.90
20364;DHT22;10340;53.664;9.908;2023-03-01T10:57:37;3.90;99.90
20364;DHT22;10340;53.664;9.908;2023-03-01T11:00:21;3.90;99.90
20364;DHT22;10340;53.664;9.908;2023-03-01T11:02:50;3.90;99.90
20364;DHT22;10340;53.664;9.908;2023-03-01T11:05:20;3.90;99.90
20364;DHT22;10340;53.664;9.908;2023-03-01T11:07:51;3.90;99.90
20364;DHT22;10340;53.664;9.908;2023-03-01T11:10:22;3.90;99.90
20364;DHT22;10340;53.664;9.908;2023-03-01T11:12:51;3.90;99.90
20364;DHT22;10340;53.664;9.908;2023-03-01T11:15:24;3.80;99.90
20364;DHT22;10340;53.664;9.908;2023-03-01T11:17:51;3.80;99.90
20364;DHT22;10340;53.664;9.908;2023-03-01T11:20:25;4.00;99.90
20364;DHT22;10340;53.664;9.908;2023-03-01T11:22:55;4.00;99.90
20364;DHT22;10340;53.664;9.908;2023-03-01T11:25:26;4.10;99.90
20364;DHT22;10340;53.664;9.908;2023-03-01T11:27:54;4.10;99.90
20364;DHT22;10340;53.664;9.908;2023-03-01T11:30:25;4.20;99.90
20364;DHT22;10340;53.664;9.908;2023-03-01T11:33:03;4.20;99.90
20364;DHT22;10340;53.664;9.908;2023-03-01T11:35:32;4.20;99.90
20364;DHT22;10340;53.664;9.908;2023-03-01T11:38:15;4.30;99.90
20364;DHT22;10340;53.664;9.908;2023-03-01T11:40:46;4.40;99.90
20364;DHT22;10340;53.664;9.908;2023-03-01T11:43:21;4.40;99.90
20364;DHT22;10340;53.664;9.908;2023-03-01T11:46:12;4.40;99.90
20364;DHT22;10340;53.664;9.908;2023-03-01T11:48:55;4.30;99.90
20364;DHT22;10340;53.664;9.908;2023-03-01T11:51:40;4.30;99.90
20364;DHT22;10340;53.664;9.908;2023-03-01T11:54:25;4.20;99.90
20364;DHT22;10340;53.664;9.908;2023-03-01T11:57:00;4.20;99.90
20364;DHT22;10340;53.664;9.908;2023-03-01T11:59:55;4.40;99.90
20364;DHT22;10340;53.664;9.908;2023-03-01T12:02:46;4.40;99.90
20364;DHT22;10340;53.664;9.908;2023-03-01T12:08:19;4.70;99.90
20364;DHT22;10340;53.664;9.908;2023-03-01T12:10:55;4.70;99.90
20364;DHT22;10340;53.664;9.908;2023-03-01T12:13:46;4.80;99.90
20364;DHT22;10340;53.664;9.908;2023-03-01T12:16:30;4.80;99.90
20364;DHT22;10340;53.664;9.908;2023-03-01T12:19:21;4.80;99.90
20364;DHT22;10340;53.664;9.908;2023-03-01T12:22:03;4.80;99.90
20364;DHT22;10340;53.664;9.908;2023-03-01T12:27:51;5.00;99.90
20364;DHT22;10340;53.664;9.908;2023-03-01T12:30:28;5.10;99.90
20364;DHT22;10340;53.664;9.908;2023-03-01T12:33:11;5.10;99.90
20364;DHT22;10340;53.664;9.908;2023-03-01T12:38:41;5.20;99.90
20364;DHT22;10340;53.664;9.908;2023-03-01T12:41:41;5.40;99.90
20364;DHT22;10340;53.664;9.908;2023-03-01T12:44:29;5.50;99.90
20364;DHT22;10340;53.664;9.908;2023-03-01T12:47:07;5.40;99.90
20364;DHT22;10340;53.664;9.908;2023-03-01T12:49:41;5.40;99.90
20364;DHT22;10340;53.664;9.908;2023-03-01T12:52:15;5.30;99.90
20364;DHT22;10340;53.664;9.908;2023-03-01T12:54:44;5.40;99.90
20364;DHT22;10340;53.664;9.908;2023-03-01T12:57:17;5.40;99.90
20364;DHT22;10340;53.664;9.908;2023-03-01T12:59:53;5.40;99.90
20364;DHT22;10340;53.664;9.908;2023-03-01T13:02:32;5.40;99.90
20364;DHT22;10340;53.664;9.908;2023-03-01T13:05:17;5.50;99.90
20364;DHT22;10340;53.664;9.908;2023-03-01T13:07:53;5.40;99.90
20364;DHT22;10340;53.664;9.908;2023-03-01T13:10:27;5.40;99.90
20364;DHT22;10340;53.664;9.908;2023-03-01T13:13:13;5.40;99.90
20364;DHT22;10340;53.664;9.908;2023-03-01T13:15:42;5.40;99.90
20364;DHT22;10340;53.664;9.908;2023-03-01T13:18:28;5.40;99.90
20364;DHT22;10340;53.664;9.908;2023-03-01T13:20:57;5.40;99.90
20364;DHT22;10340;53.664;9.908;2023-03-01T13:23:28;5.50;99.90
20364;DHT22;10340;53.664;9.908;2023-03-01T13:26:06;5.50;99.90
20364;DHT22;10340;53.664;9.908;2023-03-01T13:28:49;5.40;99.90
20364;DHT22;10340;53.664;9.908;2023-03-01T13:34:54;5.50;99.90
20364;DHT22;10340;53.664;9.908;2023-03-01T13:37:24;5.60;99.90
20364;DHT22;10340;53.664;9.908;2023-03-01T13:39:55;5.70;99.90
20364;DHT22;10340;53.664;9.908;2023-03-01T13:42:39;5.70;99.90
20364;DHT22;10340;53.664;9.908;2023-03-01T13:45:22;5.80;99.90
20364;DHT22;10340;53.664;9.908;2023-03-01T13:47:56;5.80;99.90
20364;DHT22;10340;53.664;9.908;2023-03-01T13:50:28;5.70;99.90
20364;DHT22;10340;53.664;9.908;2023-03-01T13:52:58;5.80;99.90
20364;DHT22;10340;53.664;9.908;2023-03-01T13:55:34;5.90;99.90
20364;DHT22;10340;53.664;9.908;2023-03-01T13:58:05;5.80;99.90
20364;DHT22;10340;53.664;9.908;2023-03-01T14:00:55;5.80;99.90
20364;DHT22;10340;53.664;9.908;2023-03-01T14:03:22;5.80;99.90
20364;DHT22;10340;53.664;9.908;2023-03-01T14:06:04;5.80;99.90
20364;DHT22;10340;53.664;9.908;2023-03-01T14:08:34;5.90;99.90
20364;DHT22;10340;53.664;9.908;2023-03-01T14:11:48;6.00;99.90
20364;DHT22;10340;53.664;9.908;2023-03-01T14:14:35;6.10;99.90
20364;DHT22;10340;53.664;9.908;2023-03-01T14:19:57;6.20;99.90
20364;DHT22;10340;53.664;9.908;2023-03-01T14:22:28;6.20;99.90
20364;DHT22;10340;53.664;9.908;2023-03-01T14:24:58;6.20;99.90
20364;DHT22;10340;53.664;9.908;2023-03-01T14:27:28;6.20;99.90
20364;DHT22;10340;53.664;9.908;2023-03-01T14:29:59;6.20;99.90
20364;DHT22;10340;53.664;9.908;2023-03-01T14:32:28;6.20;99.90
20364;DHT22;10340;53.664;9.908;2023-03-01T14:34:56;6.30;99.90
20364;DHT22;10340;53.664;9.908;2023-03-01T14:37:28;6.30;99.90
20364;DHT22;10340;53.664;9.908;2023-03-01T14:39:57;6.40;99.90
20364;DHT22;10340;53.664;9.908;2023-03-01T14:42:26;6.40;99.90
20364;DHT22;10340;53.664;9.908;2023-03-01T14:44:56;6.40;99.90
20364;DHT22;10340;53.664;9.908;2023-03-01T14:47:27;6.50;99.90
20364;DHT22;10340;53.664;9.908;2023-03-01T14:49:58;6.60;99.90
20364;DHT22;10340;53.664;9.908;2023-03-01T14:52:33;6.60;99.90
20364;DHT22;10340;53.664;9.908;2023-03-01T14:55:03;6.70;99.90
20364;DHT22;10340;53.664;9.908;2023-03-01T14:57:30;6.60;99.90
20364;DHT22;10340;53.664;9.908;2023-03-01T14:59:59;6.60;99.90
20364;DHT22;10340;53.664;9.908;2023-03-01T15:02:30;6.60;99.90
20364;DHT22;10340;53.664;9.908;2023-03-01T15:04:59;6.60;99.90
20364;DHT22;10340;53.664;9.908;2023-03-01T15:07:31;6.60;99.90
20364;DHT22;10340;53.664;9.908;2023-03-01T15:09:59;6.60;99.90
20364;DHT22;10340;53.664;9.908;2023-03-01T15:12:37;6.60;99.90
20364;DHT22;10340;53.664;9.908;2023-03-01T15:15:36;6.70;99.90
20364;DHT22;10340;53.664;9.908;2023-03-01T15:18:06;6.70;99.90
20364;DHT22;10340;53.664;9.908;2023-03-01T15:20:39;6.70;99.90
20364;DHT22;10340;53.664;9.908;2023-03-01T15:23:21;6.70;99.90
20364;DHT22;10340;53.664;9.908;2023-03-01T15:25:50;6.70;99.90
20364;DHT22;10340;53.664;9.908;2023-03-01T15:28:23;6.70;99.90
20364;DHT22;10340;53.664;9.908;2023-03-01T15:30:57;6.80;99.90
20364;DHT22;10340;53.664;9.908;2023-03-01T15:33:34;6.70;99.90
20364;DHT22;10340;53.664;9.908;2023-03-01T15:36:02;6.70;99.90
20364;DHT22;10340;53.664;9.908;2023-03-01T15:38:34;6.70;99.90
20364;DHT22;10340;53.664;9.908;2023-03-01T15:41:19;6.70;99.90
20364;DHT22;10340;53.664;9.908;2023-03-01T15:43:48;6.70;99.90
20364;DHT22;10340;53.664;9.908;2023-03-01T15:46:18;6.70;99.90
20364;DHT22;10340;53.664;9.908;2023-03-01T15:48:47;6.60;99.90
20364;DHT22;10340;53.664;9.908;2023-03-01T15:51:16;6.60;99.90
20364;DHT22;10340;53.664;9.908;2023-03-01T15:53:49;6.60;99.90
20364;DHT22;10340;53.664;9.908;2023-03-01T15:56:17;6.60;99.90
20364;DHT22;10340;53.664;9.908;2023-03-01T15:58:44;6.60;99.90
20364;DHT22;10340;53.664;9.908;2023-03-01T16:01:12;6.60;99.90
20364;DHT22;10340;53.664;9.908;2023-03-01T16:03:40;6.60;99.90
20364;DHT22;10340;53.664;9.908;2023-03-01T16:06:09;6.60;99.90
20364;DHT22;10340;53.664;9.908;2023-03-01T16:08:36;6.60;99.90
20364;DHT22;10340;53.664;9.908;2023-03-01T16:11:13;6.60;99.90
20364;DHT22;10340;53.664;9.908;2023-03-01T16:13:40;6.50;99.90
20364;DHT22;10340;53.664;9.908;2023-03-01T16:16:09;6.50;99.90
20364;DHT22;10340;53.664;9.908;2023-03-01T16:18:38;6.40;99.90
20364;DHT22;10340;53.664;9.908;2023-03-01T16:21:05;6.40;99.90